createdAt,value
2022-11-20T12:49:43.117Z,4.17
2022-11-20T12:51:27.992Z,4.3
2022-11-20T12:51:42.735Z,4.41
2022-11-20T12:52:43.254Z,4.58
2022-11-20T12:53:42.953Z,4.86
2022-11-20T12:54:42.753Z,5.04
2022-11-20T12:55:42.785Z,5.36
2022-11-20T12:56:43.046Z,5.91
2022-11-20T12:57:43.070Z,6.3
2022-11-20T12:58:43.063Z,6.93
2022-11-20T12:59:43.047Z,7.5
2022-11-20T13:00:43.333Z,7.73
2022-11-20T13:01:43.443Z,7.77
2022-11-20T13:02:42.833Z,7.77
2022-11-20T13:03:43.156Z,8.01
2022-11-20T13:04:43.128Z,8.27
2022-11-20T13:05:42.931Z,8.44
2022-11-20T13:06:42.881Z,8.69
2022-11-20T13:07:43.110Z,9.1
2022-11-20T13:08:42.889Z,9.04
2022-11-20T13:09:42.905Z,8.95
2022-11-20T13:10:42.952Z,8.58
2022-11-20T13:11:42.955Z,7.9
2022-11-20T13:12:43.429Z,7.06
2022-11-20T13:13:43.311Z,6.36
2022-11-20T13:14:43.168Z,5.41
2022-11-20T13:15:43.436Z,4.73
2022-11-20T13:16:43.254Z,4.02
2022-11-20T13:17:43.008Z,3.47
2022-11-20T13:18:43.246Z,3.04
2022-11-20T13:19:44.399Z,2.82
2022-11-20T13:20:43.432Z,2.51
2022-11-20T13:21:43.324Z,2.33
2022-11-20T13:22:43.102Z,2.15
2022-11-20T13:23:43.884Z,2.02
2022-11-20T13:24:43.560Z,1.91
2022-11-20T13:25:43.339Z,1.8
2022-11-20T13:26:43.317Z,1.78
2022-11-20T13:27:43.932Z,1.67
2022-11-20T13:28:43.328Z,1.58
2022-11-20T13:29:43.456Z,1.55
2022-11-20T13:30:43.361Z,1.48
2022-11-20T13:31:43.657Z,1.4
2022-11-20T13:32:43.631Z,1.32
2022-11-20T13:33:43.155Z,1.17
2022-11-20T13:34:43.357Z,1.1
2022-11-20T13:35:43.355Z,1.02
2022-11-20T13:36:43.142Z,1.08
2022-11-20T13:37:43.336Z,1.02
2022-11-20T13:38:43.121Z,0.92
2022-11-20T13:39:43.378Z,0.88
2022-11-20T13:40:44.529Z,0.8
2022-11-20T13:41:44.003Z,0.76
2022-11-20T13:42:43.399Z,0.56
2022-11-20T13:43:43.153Z,0.56
2022-11-20T13:44:43.129Z,0.43
2022-11-20T13:45:43.397Z,0.39
2022-11-20T13:46:43.135Z,0.4
